Briggsdale, Colorado
Current Conditions -  °F | °C
As of 5:55 PM on Friday 24 Oct 2014 (Local Time) from KGXY Reporting Station
Clear Clear  
Wind Chill: 72°   Ceiling: Unl
Heat Index: 72°   Visibility: 10mi
Dew Point: 30°   Wind: 5mph
Humidity: 22%   Direction: 110°ESE
Pressure: 30.12"   Gusts: NA
Location:  40.63°N, 104.33°W
Report Text: KGXY 242355Z AUTO 11004KT 10SM CLR 22/M01 A3012 RMK AO1 10270 20180 402700060 52003
Loading
Personal Weather Stations






























Interactive Weather Map
Tropical Storm Tracking
New forecast layout! Learn more

10-Day Weather Forecast

Advertisements
Track Severe Weather on mobile